sensor_id;sensor_type;location;lat;lon;timestamp;P1;durP1;ratioP1;P2;durP2;ratioP2
51692;SDS011;37777;53.066;21.638;2024-03-02T00:00:56;33.28;;;28.92;;
51692;SDS011;37777;53.066;21.638;2024-03-02T00:07:57;36.42;;;32.03;;
51692;SDS011;37777;53.066;21.638;2024-03-02T00:14:59;33.70;;;30.10;;
51692;SDS011;37777;53.066;21.638;2024-03-02T00:30:35;37.63;;;30.92;;
51692;SDS011;37777;53.066;21.638;2024-03-02T00:37:45;37.37;;;32.60;;
51692;SDS011;37777;53.066;21.638;2024-03-02T00:44:46;43.95;;;31.00;;
51692;SDS011;37777;53.066;21.638;2024-03-02T00:51:50;39.60;;;31.92;;
51692;SDS011;37777;53.066;21.638;2024-03-02T00:58:53;38.92;;;32.38;;
51692;SDS011;37777;53.066;21.638;2024-03-02T01:05:55;35.22;;;30.63;;
51692;SDS011;37777;53.066;21.638;2024-03-02T01:12:56;34.85;;;30.67;;
51692;SDS011;37777;53.066;21.638;2024-03-02T01:19:58;34.40;;;28.92;;
51692;SDS011;37777;53.066;21.638;2024-03-02T01:26:59;33.13;;;29.25;;
51692;SDS011;37777;53.066;21.638;2024-03-02T01:34:01;38.85;;;30.92;;
51692;SDS011;37777;53.066;21.638;2024-03-02T01:41:02;45.58;;;31.05;;
51692;SDS011;37777;53.066;21.638;2024-03-02T01:48:04;42.15;;;29.35;;
51692;SDS011;37777;53.066;21.638;2024-03-02T01:55:08;35.15;;;27.90;;
51692;SDS011;37777;53.066;21.638;2024-03-02T02:02:09;37.00;;;28.52;;
51692;SDS011;37777;53.066;21.638;2024-03-02T02:09:11;41.47;;;30.20;;
51692;SDS011;37777;53.066;21.638;2024-03-02T02:16:13;46.65;;;30.45;;
51692;SDS011;37777;53.066;21.638;2024-03-02T02:23:14;39.63;;;30.17;;
51692;SDS011;37777;53.066;21.638;2024-03-02T02:30:19;37.50;;;30.25;;
51692;SDS011;37777;53.066;21.638;2024-03-02T02:37:22;46.72;;;32.13;;
51692;SDS011;37777;53.066;21.638;2024-03-02T02:44:23;48.58;;;31.17;;
51692;SDS011;37777;53.066;21.638;2024-03-02T02:51:25;40.38;;;31.45;;
51692;SDS011;37777;53.066;21.638;2024-03-02T02:58:27;41.20;;;29.13;;
51692;SDS011;37777;53.066;21.638;2024-03-02T03:05:29;42.58;;;31.15;;
51692;SDS011;37777;53.066;21.638;2024-03-02T03:12:30;39.80;;;32.00;;
51692;SDS011;37777;53.066;21.638;2024-03-02T03:19:35;41.08;;;30.98;;
51692;SDS011;37777;53.066;21.638;2024-03-02T03:26:37;51.55;;;34.20;;
51692;SDS011;37777;53.066;21.638;2024-03-02T03:33:38;41.05;;;31.38;;
51692;SDS011;37777;53.066;21.638;2024-03-02T03:40:39;45.15;;;31.50;;
51692;SDS011;37777;53.066;21.638;2024-03-02T03:47:41;44.13;;;31.63;;
51692;SDS011;37777;53.066;21.638;2024-03-02T03:54:43;49.97;;;33.38;;
51692;SDS011;37777;53.066;21.638;2024-03-02T04:01:46;48.72;;;33.53;;
51692;SDS011;37777;53.066;21.638;2024-03-02T04:08:47;41.88;;;33.17;;
51692;SDS011;37777;53.066;21.638;2024-03-02T04:15:48;55.33;;;32.58;;
51692;SDS011;37777;53.066;21.638;2024-03-02T04:22:50;43.20;;;34.20;;
51692;SDS011;37777;53.066;21.638;2024-03-02T04:29:51;42.25;;;36.35;;
51692;SDS011;37777;53.066;21.638;2024-03-02T04:36:53;52.33;;;36.72;;
51692;SDS011;37777;53.066;21.638;2024-03-02T04:43:54;44.15;;;39.20;;
51692;SDS011;37777;53.066;21.638;2024-03-02T04:50:56;58.00;;;44.53;;
51692;SDS011;37777;53.066;21.638;2024-03-02T04:57:57;54.53;;;48.88;;
51692;SDS011;37777;53.066;21.638;2024-03-02T05:04:59;59.28;;;52.33;;
51692;SDS011;37777;53.066;21.638;2024-03-02T05:12:01;61.33;;;54.70;;
51692;SDS011;37777;53.066;21.638;2024-03-02T05:19:20;68.30;;;56.17;;
51692;SDS011;37777;53.066;21.638;2024-03-02T05:26:22;64.55;;;58.17;;
51692;SDS011;37777;53.066;21.638;2024-03-02T05:41:45;73.70;;;66.00;;
51692;SDS011;37777;53.066;21.638;2024-03-02T05:48:47;65.68;;;58.72;;
51692;SDS011;37777;53.066;21.638;2024-03-02T05:55:48;66.05;;;59.33;;
51692;SDS011;37777;53.066;21.638;2024-03-02T06:02:54;66.85;;;59.88;;
51692;SDS011;37777;53.066;21.638;2024-03-02T06:09:56;65.88;;;59.22;;
51692;SDS011;37777;53.066;21.638;2024-03-02T06:16:57;61.92;;;55.63;;
51692;SDS011;37777;53.066;21.638;2024-03-02T06:24:00;70.32;;;63.17;;
51692;SDS011;37777;53.066;21.638;2024-03-02T06:31:02;70.72;;;63.95;;
51692;SDS011;37777;53.066;21.638;2024-03-02T06:38:04;66.93;;;58.38;;
51692;SDS011;37777;53.066;21.638;2024-03-02T06:45:05;59.97;;;53.65;;
51692;SDS011;37777;53.066;21.638;2024-03-02T06:52:07;62.42;;;52.55;;
51692;SDS011;37777;53.066;21.638;2024-03-02T06:59:09;55.38;;;49.17;;
51692;SDS011;37777;53.066;21.638;2024-03-02T07:06:10;58.35;;;51.95;;
51692;SDS011;37777;53.066;21.638;2024-03-02T07:13:11;58.78;;;49.90;;
51692;SDS011;37777;53.066;21.638;2024-03-02T07:20:14;75.07;;;49.40;;
51692;SDS011;37777;53.066;21.638;2024-03-02T07:35:37;57.20;;;43.97;;
51692;SDS011;37777;53.066;21.638;2024-03-02T07:42:39;59.55;;;43.33;;
51692;SDS011;37777;53.066;21.638;2024-03-02T07:49:41;52.30;;;39.67;;
51692;SDS011;37777;53.066;21.638;2024-03-02T07:56:43;55.50;;;40.63;;
51692;SDS011;37777;53.066;21.638;2024-03-02T08:03:46;61.10;;;43.25;;
51692;SDS011;37777;53.066;21.638;2024-03-02T08:19:11;99.78;;;48.28;;
51692;SDS011;37777;53.066;21.638;2024-03-02T08:26:13;62.25;;;38.63;;
51692;SDS011;37777;53.066;21.638;2024-03-02T08:33:15;64.57;;;37.63;;
51692;SDS011;37777;53.066;21.638;2024-03-02T08:40:16;53.22;;;35.25;;
51692;SDS011;37777;53.066;21.638;2024-03-02T08:47:19;57.08;;;35.88;;
51692;SDS011;37777;53.066;21.638;2024-03-02T08:54:21;54.80;;;37.13;;
51692;SDS011;37777;53.066;21.638;2024-03-02T09:01:23;52.80;;;37.13;;
51692;SDS011;37777;53.066;21.638;2024-03-02T09:08:24;46.90;;;36.83;;
51692;SDS011;37777;53.066;21.638;2024-03-02T09:15:26;56.83;;;34.30;;
51692;SDS011;37777;53.066;21.638;2024-03-02T09:22:28;47.13;;;34.70;;
51692;SDS011;37777;53.066;21.638;2024-03-02T09:29:29;45.78;;;33.65;;
51692;SDS011;37777;53.066;21.638;2024-03-02T09:36:31;46.55;;;35.00;;
51692;SDS011;37777;53.066;21.638;2024-03-02T09:43:32;48.33;;;35.42;;
51692;SDS011;37777;53.066;21.638;2024-03-02T09:50:34;49.97;;;34.35;;
51692;SDS011;37777;53.066;21.638;2024-03-02T09:57:35;49.22;;;34.78;;
51692;SDS011;37777;53.066;21.638;2024-03-02T10:04:40;51.78;;;33.83;;
51692;SDS011;37777;53.066;21.638;2024-03-02T10:20:22;48.08;;;31.45;;
51692;SDS011;37777;53.066;21.638;2024-03-02T10:27:26;45.42;;;33.40;;
51692;SDS011;37777;53.066;21.638;2024-03-02T10:34:30;49.22;;;35.08;;
51692;SDS011;37777;53.066;21.638;2024-03-02T10:41:33;51.63;;;36.35;;
51692;SDS011;37777;53.066;21.638;2024-03-02T10:48:39;45.83;;;37.80;;
51692;SDS011;37777;53.066;21.638;2024-03-02T10:55:42;45.00;;;37.42;;
51692;SDS011;37777;53.066;21.638;2024-03-02T11:02:49;47.55;;;34.35;;
51692;SDS011;37777;53.066;21.638;2024-03-02T11:25:31;47.55;;;31.95;;
51692;SDS011;37777;53.066;21.638;2024-03-02T11:32:33;48.65;;;30.90;;
51692;SDS011;37777;53.066;21.638;2024-03-02T11:39:35;41.65;;;30.85;;
51692;SDS011;37777;53.066;21.638;2024-03-02T11:55:05;44.45;;;35.17;;
51692;SDS011;37777;53.066;21.638;2024-03-02T12:02:14;47.30;;;35.80;;
51692;SDS011;37777;53.066;21.638;2024-03-02T12:09:20;42.65;;;34.22;;
51692;SDS011;37777;53.066;21.638;2024-03-02T12:25:00;51.70;;;33.92;;
51692;SDS011;37777;53.066;21.638;2024-03-02T12:32:02;47.03;;;34.42;;
51692;SDS011;37777;53.066;21.638;2024-03-02T12:39:04;45.95;;;33.55;;
51692;SDS011;37777;53.066;21.638;2024-03-02T12:46:06;46.92;;;34.28;;
51692;SDS011;37777;53.066;21.638;2024-03-02T13:01:30;38.30;;;32.17;;
51692;SDS011;37777;53.066;21.638;2024-03-02T13:08:33;42.92;;;32.97;;
51692;SDS011;37777;53.066;21.638;2024-03-02T13:15:35;38.05;;;32.83;;
51692;SDS011;37777;53.066;21.638;2024-03-02T13:22:37;39.42;;;33.10;;
51692;SDS011;37777;53.066;21.638;2024-03-02T13:29:38;46.50;;;34.25;;
51692;SDS011;37777;53.066;21.638;2024-03-02T13:36:40;42.85;;;34.60;;
51692;SDS011;37777;53.066;21.638;2024-03-02T13:43:41;44.70;;;34.60;;
51692;SDS011;37777;53.066;21.638;2024-03-02T13:50:43;39.08;;;32.85;;
51692;SDS011;37777;53.066;21.638;2024-03-02T13:57:46;40.83;;;32.25;;
51692;SDS011;37777;53.066;21.638;2024-03-02T14:04:48;37.47;;;31.30;;
51692;SDS011;37777;53.066;21.638;2024-03-02T14:11:54;36.15;;;28.50;;
51692;SDS011;37777;53.066;21.638;2024-03-02T14:18:56;40.80;;;32.08;;
51692;SDS011;37777;53.066;21.638;2024-03-02T14:25:58;40.88;;;31.73;;
51692;SDS011;37777;53.066;21.638;2024-03-02T14:33:00;45.33;;;33.17;;
51692;SDS011;37777;53.066;21.638;2024-03-02T14:40:02;44.97;;;35.08;;
51692;SDS011;37777;53.066;21.638;2024-03-02T14:47:06;45.00;;;34.20;;
51692;SDS011;37777;53.066;21.638;2024-03-02T14:54:08;37.55;;;30.80;;
51692;SDS011;37777;53.066;21.638;2024-03-02T15:01:10;40.10;;;29.77;;
51692;SDS011;37777;53.066;21.638;2024-03-02T15:08:11;34.05;;;28.00;;
51692;SDS011;37777;53.066;21.638;2024-03-02T15:15:13;32.70;;;27.48;;
51692;SDS011;37777;53.066;21.638;2024-03-02T15:22:14;41.50;;;28.83;;
51692;SDS011;37777;53.066;21.638;2024-03-02T15:29:16;32.10;;;28.65;;
51692;SDS011;37777;53.066;21.638;2024-03-02T15:36:17;31.02;;;26.48;;
51692;SDS011;37777;53.066;21.638;2024-03-02T15:43:19;34.35;;;29.08;;
51692;SDS011;37777;53.066;21.638;2024-03-02T15:50:20;34.55;;;30.30;;
51692;SDS011;37777;53.066;21.638;2024-03-02T15:57:22;36.70;;;30.38;;
51692;SDS011;37777;53.066;21.638;2024-03-02T16:46:14;51.40;;;34.88;;
51692;SDS011;37777;53.066;21.638;2024-03-02T16:53:16;40.97;;;31.45;;
51692;SDS011;37777;53.066;21.638;2024-03-02T17:00:18;51.22;;;36.30;;
51692;SDS011;37777;53.066;21.638;2024-03-02T17:07:20;44.03;;;34.30;;
51692;SDS011;37777;53.066;21.638;2024-03-02T17:14:22;43.10;;;30.52;;
51692;SDS011;37777;53.066;21.638;2024-03-02T17:21:23;41.03;;;32.53;;
51692;SDS011;37777;53.066;21.638;2024-03-02T17:28:26;77.85;;;41.30;;
51692;SDS011;37777;53.066;21.638;2024-03-02T17:35:30;53.40;;;35.15;;
51692;SDS011;37777;53.066;21.638;2024-03-02T17:42:32;88.00;;;43.65;;
51692;SDS011;37777;53.066;21.638;2024-03-02T18:06:30;39.75;;;30.73;;
51692;SDS011;37777;53.066;21.638;2024-03-02T18:13:32;41.67;;;30.30;;
51692;SDS011;37777;53.066;21.638;2024-03-02T18:20:35;41.85;;;32.85;;
51692;SDS011;37777;53.066;21.638;2024-03-02T18:27:37;49.60;;;34.17;;
51692;SDS011;37777;53.066;21.638;2024-03-02T18:34:39;45.28;;;32.72;;
51692;SDS011;37777;53.066;21.638;2024-03-02T18:41:42;38.75;;;32.42;;
51692;SDS011;37777;53.066;21.638;2024-03-02T18:48:43;45.85;;;32.55;;
51692;SDS011;37777;53.066;21.638;2024-03-02T18:55:45;51.15;;;33.72;;
51692;SDS011;37777;53.066;21.638;2024-03-02T19:02:46;45.85;;;36.80;;
51692;SDS011;37777;53.066;21.638;2024-03-02T19:09:48;53.78;;;37.47;;
51692;SDS011;37777;53.066;21.638;2024-03-02T19:16:49;61.90;;;39.47;;
51692;SDS011;37777;53.066;21.638;2024-03-02T19:23:51;49.35;;;34.70;;
51692;SDS011;37777;53.066;21.638;2024-03-02T19:30:53;49.40;;;34.00;;
51692;SDS011;37777;53.066;21.638;2024-03-02T19:37:54;54.28;;;34.38;;
51692;SDS011;37777;53.066;21.638;2024-03-02T19:44:57;38.92;;;32.33;;
51692;SDS011;37777;53.066;21.638;2024-03-02T19:51:58;43.63;;;33.85;;
51692;SDS011;37777;53.066;21.638;2024-03-02T19:59:00;43.10;;;36.50;;
51692;SDS011;37777;53.066;21.638;2024-03-02T20:06:01;64.18;;;35.83;;
51692;SDS011;37777;53.066;21.638;2024-03-02T20:13:03;55.55;;;34.38;;
51692;SDS011;37777;53.066;21.638;2024-03-02T20:20:07;49.95;;;35.13;;
51692;SDS011;37777;53.066;21.638;2024-03-02T20:27:12;45.53;;;33.55;;
51692;SDS011;37777;53.066;21.638;2024-03-02T20:34:13;52.20;;;36.47;;
51692;SDS011;37777;53.066;21.638;2024-03-02T20:41:18;49.25;;;37.13;;
51692;SDS011;37777;53.066;21.638;2024-03-02T20:48:20;47.03;;;37.15;;
51692;SDS011;37777;53.066;21.638;2024-03-02T20:55:21;47.28;;;35.65;;
51692;SDS011;37777;53.066;21.638;2024-03-02T21:02:23;47.30;;;37.22;;
51692;SDS011;37777;53.066;21.638;2024-03-02T21:09:25;50.13;;;36.38;;
51692;SDS011;37777;53.066;21.638;2024-03-02T21:16:27;43.92;;;34.35;;
51692;SDS011;37777;53.066;21.638;2024-03-02T21:31:50;50.00;;;36.75;;
51692;SDS011;37777;53.066;21.638;2024-03-02T21:38:54;42.45;;;34.60;;
51692;SDS011;37777;53.066;21.638;2024-03-02T21:45:56;43.65;;;34.47;;
51692;SDS011;37777;53.066;21.638;2024-03-02T21:52:57;43.15;;;33.38;;
51692;SDS011;37777;53.066;21.638;2024-03-02T22:00:00;40.45;;;34.90;;
51692;SDS011;37777;53.066;21.638;2024-03-02T22:07:02;41.15;;;35.85;;
51692;SDS011;37777;53.066;21.638;2024-03-02T22:14:03;39.40;;;33.92;;
51692;SDS011;37777;53.066;21.638;2024-03-02T22:21:05;40.58;;;36.13;;
51692;SDS011;37777;53.066;21.638;2024-03-02T22:28:07;39.75;;;35.03;;
51692;SDS011;37777;53.066;21.638;2024-03-02T22:35:10;40.17;;;35.47;;
51692;SDS011;37777;53.066;21.638;2024-03-02T22:42:11;41.28;;;35.03;;
51692;SDS011;37777;53.066;21.638;2024-03-02T22:49:13;38.25;;;34.03;;
51692;SDS011;37777;53.066;21.638;2024-03-02T22:56:15;39.13;;;34.88;;
51692;SDS011;37777;53.066;21.638;2024-03-02T23:03:16;37.33;;;33.42;;
51692;SDS011;37777;53.066;21.638;2024-03-02T23:10:19;41.75;;;34.22;;
51692;SDS011;37777;53.066;21.638;2024-03-02T23:17:21;46.58;;;34.90;;
51692;SDS011;37777;53.066;21.638;2024-03-02T23:24:22;37.55;;;33.47;;
51692;SDS011;37777;53.066;21.638;2024-03-02T23:38:59;36.70;;;32.70;;
51692;SDS011;37777;53.066;21.638;2024-03-02T23:46:06;42.00;;;33.45;;
51692;SDS011;37777;53.066;21.638;2024-03-02T23:53:09;39.15;;;34.90;;
